Time;durP1;ratioP1;P1;durP2;ratioP2;P2;SDS_P1;SDS_P2;PMS_P1;PMS_P2;Temp;Humidity;BMP_temperature;BMP_pressure;BME280_temperature;BME280_humidity;BME280_pressure;Samples;Min_cycle;Max_cycle;Signal;HPM_P1;HPM_P2
2022/04/23 00:01:06;;;;;;;26.33;19.45;;;;;;;9.40;100.00;100360.03;6328043;22;20090;-74
2022/04/23 00:03:32;;;;;;;27.08;18.95;;;;;;;9.35;100.00;100362.53;6336119;22;20337;-74
2022/04/23 00:05:58;;;;;;;28.75;18.50;;;;;;;9.34;100.00;100352.06;6332433;22;20332;-74
2022/04/23 00:08:23;;;;;;;27.15;19.83;;;;;;;9.32;100.00;100357.63;6305627;22;20007;-75
2022/04/23 00:10:48;;;;;;;28.02;18.92;;;;;;;9.34;100.00;100352.06;6308179;22;20010;-74
2022/04/23 00:13:14;;;;;;;31.25;20.90;;;;;;;9.36;100.00;100356.16;6328891;22;20007;-75
2022/04/23 00:19:00;;;;;;;29.90;20.58;;;;;;;9.31;100.00;100356.00;6336126;22;20044;-74
2022/04/23 00:21:26;;;;;;;32.22;19.55;;;;;;;9.26;100.00;100348.66;6308288;22;20085;-73
2022/04/23 00:23:51;;;;;;;29.60;20.55;;;;;;;9.23;100.00;100343.72;6329291;22;20052;-74
2022/04/23 00:26:17;;;;;;;32.60;20.40;;;;;;;9.28;100.00;100367.09;6337426;22;20006;-74
2022/04/23 00:28:43;;;;;;;33.58;19.98;;;;;;;9.21;100.00;100353.78;6337516;22;20260;-73
2022/04/23 00:31:08;;;;;;;29.67;19.17;;;;;;;9.20;100.00;100351.34;6330631;22;20007;-74
2022/04/23 00:33:37;;;;;;;30.25;20.95;;;;;;;9.13;100.00;100356.75;6337169;22;20010;-73
2022/04/23 00:36:09;;;;;;;30.80;20.98;;;;;;;9.05;100.00;100357.00;6330447;22;20007;-74
2022/04/23 00:38:36;;;;;;;34.67;21.60;;;;;;;9.05;100.00;100357.00;6337325;22;20003;-74
2022/04/23 00:41:01;;;;;;;35.00;21.63;;;;;;;8.97;100.00;100358.09;6331117;22;20015;-75
2022/04/23 00:43:29;;;;;;;35.95;22.58;;;;;;;8.99;100.00;100364.03;6336548;22;20021;-74
2022/04/23 00:45:55;;;;;;;35.92;23.60;;;;;;;8.98;100.00;100366.91;6337193;22;20022;-73
2022/04/23 00:48:21;;;;;;;32.00;21.33;;;;;;;9.02;100.00;100367.28;6330291;22;20010;-74
2022/04/23 00:54:10;;;;;;;37.22;23.95;;;;;;;8.99;100.00;100365.88;6337491;22;20025;-73
2022/04/23 00:56:37;;;;;;;33.30;21.45;;;;;;;8.95;100.00;100360.13;6337173;22;20033;-74
2022/04/23 00:59:11;;;;;;;40.65;25.42;;;;;;;8.92;100.00;100354.41;6330349;22;20056;-74
2022/04/23 01:04:57;;;;;;;41.75;26.33;;;;;;;8.88;100.00;100355.88;6337335;22;20038;-74
2022/04/23 01:07:23;;;;;;;40.63;27.42;;;;;;;8.91;100.00;100361.59;6309339;22;20427;-75
2022/04/23 01:13:14;;;;;;;46.15;27.23;;;;;;;8.89;100.00;100358.34;6337137;22;20458;-75
2022/04/23 01:15:54;;;;;;;43.40;26.17;;;;;;;8.87;100.00;100357.72;6337079;22;20426;-73
2022/04/23 01:18:20;;;;;;;49.47;30.13;;;;;;;8.86;100.00;100348.09;6323161;22;20017;-74
2022/04/23 01:20:46;;;;;;;46.13;28.67;;;;;;;8.85;100.00;100351.78;6336877;22;20393;-74
2022/04/23 01:23:13;;;;;;;48.33;31.88;;;;;;;8.84;100.00;100354.69;6329716;22;20256;-75
2022/04/23 01:25:38;;;;;;;52.22;30.92;;;;;;;8.78;100.00;100351.03;6336979;22;20085;-74
2022/04/23 01:28:04;;;;;;;54.42;31.00;;;;;;;8.75;100.00;100351.47;6330472;22;20454;-74
2022/04/23 01:30:29;;;;;;;51.78;28.13;;;;;;;8.79;100.00;100360.66;6309035;22;20319;-74
2022/04/23 01:32:55;;;;;;;56.08;33.30;;;;;;;8.74;100.00;100357.00;6336882;22;20007;-74
2022/04/23 01:35:20;;;;;;;57.93;33.13;;;;;;;8.73;100.00;100358.03;6329636;22;20039;-74
2022/04/23 01:37:45;;;;;;;52.72;29.85;;;;;;;8.71;100.00;100363.59;6336949;22;20244;-74
2022/04/23 01:40:11;;;;;;;62.75;35.05;;;;;;;8.69;100.00;100352.31;6330003;22;20044;-75
2022/04/23 01:42:37;;;;;;;60.20;32.33;;;;;;;8.68;100.00;100356.00;6308964;22;20009;-73
2022/04/23 01:52:15;;;;;;;64.40;35.17;;;;;;;8.64;100.00;100365.44;6336917;22;20075;-74
2022/04/23 01:54:40;;;;;;;70.82;39.60;;;;;;;8.64;100.00;100370.78;6336598;22;20010;-74
2022/04/23 01:57:06;;;;;;;66.03;33.95;;;;;;;8.57;100.00;100362.81;6329654;22;20080;-74
2022/04/23 01:59:31;;;;;;;71.82;37.65;;;;;;;8.58;100.00;100363.63;6336780;22;20006;-75
2022/04/23 02:05:18;;;;;;;78.65;38.55;;;;;;;8.56;100.00;100365.69;6336714;22;20021;-75
2022/04/23 02:07:45;;;;;;;80.85;40.58;;;;;;;8.58;100.00;100369.78;6336575;22;20011;-74
2022/04/23 02:10:12;;;;;;;82.28;43.00;;;;;;;8.56;100.00;100368.38;6329845;22;20387;-74
2022/04/23 02:12:38;;;;;;;80.47;40.70;;;;;;;8.52;100.00;100365.31;6336576;22;20002;-74
2022/04/23 02:15:15;;;;;;;86.30;44.33;;;;;;;8.47;100.00;100364.31;6329685;22;20081;-74
2022/04/23 02:17:49;;;;;;;86.70;41.83;;;;;;;8.46;100.00;100357.34;6336603;22;20452;-73
2022/04/23 02:20:18;;;;;;;89.53;43.08;;;;;;;8.40;100.00;100352.88;6333429;22;20003;-74
2022/04/23 02:22:47;;;;;;;86.03;44.08;;;;;;;8.46;100.00;100362.69;6333984;22;20331;-74
2022/04/23 02:25:13;;;;;;;94.60;45.30;;;;;;;8.41;100.00;100367.84;6336438;22;20006;-73
2022/04/23 02:27:43;;;;;;;99.15;47.50;;;;;;;8.42;100.00;100364.13;6302422;22;20011;-75
2022/04/23 02:30:09;;;;;;;86.95;41.90;;;;;;;8.38;100.00;100361.91;6336556;22;20007;-74
2022/04/23 02:32:35;;;;;;;96.85;45.03;;;;;;;8.43;100.00;100369.25;6329762;22;20046;-74
2022/04/23 02:35:00;;;;;;;102.80;50.00;;;;;;;8.40;100.00;100352.88;6336544;22;20010;-74
2022/04/23 02:37:34;;;;;;;113.20;48.83;;;;;;;8.47;100.00;100367.78;6308809;22;20243;-74
2022/04/23 02:40:01;;;;;;;100.07;46.85;;;;;;;8.47;100.00;100361.66;6302920;22;20013;-74
2022/04/23 02:42:26;;;;;;;112.10;49.80;;;;;;;8.45;100.00;100361.88;6308761;22;20010;-75
2022/04/23 02:44:51;;;;;;;103.27;48.77;;;;;;;8.50;100.00;100359.38;6329681;22;20061;-74
2022/04/23 02:47:17;;;;;;;109.23;47.33;;;;;;;8.41;100.00;100363.31;6307902;22;20387;-74
2022/04/23 02:49:42;;;;;;;108.15;48.65;;;;;;;8.41;100.00;100363.31;6329633;22;20288;-74
2022/04/23 02:52:07;;;;;;;107.00;49.97;;;;;;;8.42;100.00;100362.28;6336435;22;20007;-73
2022/04/23 02:54:33;;;;;;;122.77;53.60;;;;;;;8.35;100.00;100362.28;6336634;22;20060;-74
2022/04/23 02:56:58;;;;;;;113.10;52.33;;;;;;;8.35;100.00;100362.28;6329692;22;20251;-75
2022/04/23 02:59:23;;;;;;;119.45;51.17;;;;;;;8.37;100.00;100351.44;6308800;22;20720;-76
2022/04/23 03:01:49;;;;;;;114.03;51.60;;;;;;;8.32;100.00;100341.38;6329567;22;20390;-75
2022/04/23 03:04:16;;;;;;;120.03;50.15;;;;;;;8.35;100.00;100356.16;6336470;22;20033;-74
2022/04/23 03:06:41;;;;;;;119.93;53.03;;;;;;;8.31;100.00;100349.59;6337094;22;20055;-74
2022/04/23 03:09:06;;;;;;;116.78;52.80;;;;;;;8.33;100.00;100355.50;6302298;22;20138;-76
2022/04/23 03:11:32;;;;;;;120.75;52.38;;;;;;;8.29;100.00;100352.47;6336435;22;20053;-74
2022/04/23 03:14:02;;;;;;;108.32;45.60;;;;;;;8.23;100.00;100353.31;6302286;22;20010;-74
2022/04/23 03:16:28;;;;;;;126.40;54.83;;;;;;;8.24;100.00;100364.78;6336493;22;20078;-74
2022/04/23 03:18:53;;;;;;;123.40;52.55;;;;;;;8.21;100.00;100349.22;6332749;22;20007;-74
2022/04/23 03:21:19;;;;;;;130.30;53.20;;;;;;;8.15;100.00;100345.56;6333061;22;20376;-74
2022/04/23 03:23:44;;;;;;;137.10;59.42;;;;;;;8.23;100.00;100357.81;6308548;22;20098;-75
2022/04/23 03:26:10;;;;;;;128.95;55.97;;;;;;;8.13;100.00;100350.28;6302030;22;20033;-74
2022/04/23 03:28:35;;;;;;;138.15;51.22;;;;;;;8.10;100.00;100342.72;6308564;22;20011;-74
2022/04/23 03:31:00;;;;;;;129.57;52.38;;;;;;;8.07;100.00;100346.59;6330900;22;20019;-74
2022/04/23 03:33:26;;;;;;;130.02;52.35;;;;;;;8.09;100.00;100354.38;6307723;22;20572;-73
2022/04/23 03:35:52;;;;;;;135.60;55.60;;;;;;;8.06;100.00;100349.47;6336263;22;20394;-74
2022/04/23 03:38:17;;;;;;;136.45;58.65;;;;;;;8.04;100.00;100340.88;6329153;22;20006;-75
2022/04/23 03:40:42;;;;;;;145.57;56.70;;;;;;;8.08;100.00;100350.06;6336267;22;20029;-74
2022/04/23 03:43:07;;;;;;;140.30;55.47;;;;;;;8.03;100.00;100336.56;6329748;22;20052;-74
2022/04/23 03:45:33;;;;;;;149.13;59.60;;;;;;;8.05;100.00;100345.16;6335708;22;20528;-74
2022/04/23 03:51:20;;;;;;;131.68;52.05;;;;;;;8.02;100.00;100350.91;6336796;22;20077;-74
2022/04/23 03:53:46;;;;;;;147.40;54.92;;;;;;;7.95;100.00;100334.97;6336111;22;20011;-74
2022/04/23 03:56:11;;;;;;;148.97;56.83;;;;;;;7.90;100.00;100336.63;6328872;22;20402;-74
2022/04/23 03:58:36;;;;;;;142.65;54.95;;;;;;;7.90;100.00;100331.31;6336815;22;20261;-74
2022/04/23 04:01:01;;;;;;;168.75;66.97;;;;;;;7.97;100.00;100337.41;6303030;22;20018;-74
2022/04/23 04:03:27;;;;;;;151.63;60.33;;;;;;;7.95;100.00;100337.63;6337362;22;20037;-74
2022/04/23 04:05:53;;;;;;;160.00;63.15;;;;;;;7.96;100.00;100333.13;6337235;22;20366;-75
2022/04/23 04:08:18;;;;;;;159.88;59.38;;;;;;;7.97;100.00;100334.75;6330407;22;20120;-74
2022/04/23 04:10:44;;;;;;;149.98;54.65;;;;;;;7.91;100.00;100331.09;6337266;22;20060;-74
2022/04/23 04:13:09;;;;;;;159.05;63.35;;;;;;;7.89;100.00;100329.66;6330405;22;20431;-74
2022/04/23 04:15:35;;;;;;;176.88;65.53;;;;;;;7.99;100.00;100330.03;6309499;22;20086;-74
2022/04/23 04:18:01;;;;;;;168.77;70.72;;;;;;;7.93;100.00;100330.88;6337108;22;20425;-76
2022/04/23 04:20:27;;;;;;;163.65;61.35;;;;;;;7.95;100.00;100321.66;6330276;22;20034;-73
2022/04/23 04:26:13;;;;;;;169.30;65.75;;;;;;;8.02;100.00;100311.78;6337711;22;20022;-75
2022/04/23 04:28:39;;;;;;;150.48;56.10;;;;;;;8.06;100.00;100323.66;6337110;22;20007;-74
2022/04/23 04:33:49;;;;;;;151.85;57.67;;;;;;;8.00;100.00;100319.16;6337501;22;20040;-75
2022/04/23 04:36:14;;;;;;;175.13;65.18;;;;;;;8.00;100.00;100315.69;6302921;22;20015;-75
2022/04/23 04:38:39;;;;;;;168.70;63.63;;;;;;;7.99;100.00;100322.88;6337327;22;20007;-76
2022/04/23 04:41:05;;;;;;;163.43;68.83;;;;;;;8.07;100.00;100317.28;6309317;22;20007;-75
2022/04/23 04:43:31;;;;;;;177.07;64.60;;;;;;;8.07;100.00;100319.97;6302794;22;20277;-73
2022/04/23 04:49:18;;;;;;;167.20;63.72;;;;;;;8.20;100.00;100326.28;6337249;22;20017;-75
2022/04/23 04:51:43;;;;;;;159.98;64.00;;;;;;;8.24;100.00;100322.97;6337264;22;20007;-75
2022/04/23 04:54:09;;;;;;;157.73;58.65;;;;;;;8.32;100.00;100327.25;6330198;22;20014;-73
2022/04/23 04:56:34;;;;;;;157.50;58.92;;;;;;;8.34;100.00;100317.22;6309254;22;20064;-74
2022/04/23 04:59:00;;;;;;;144.85;60.63;;;;;;;8.51;100.00;100328.22;6331610;22;20465;-75
2022/04/23 05:01:26;;;;;;;143.27;52.28;;;;;;;8.62;100.00;100335.53;6308181;22;20002;-74
2022/04/23 05:03:53;;;;;;;149.20;54.45;;;;;;;8.69;100.00;100331.00;6309213;22;20007;-73
2022/04/23 05:06:19;;;;;;;156.25;55.75;;;;;;;8.77;100.00;100333.41;6330116;22;20445;-74
2022/04/23 05:08:44;;;;;;;146.40;53.72;;;;;;;8.88;100.00;100340.69;6336881;22;20009;-74
2022/04/23 05:11:10;;;;;;;131.98;49.17;;;;;;;9.02;100.00;100340.63;6329831;22;20026;-74
2022/04/23 05:13:37;;;;;;;129.90;54.35;;;;;;;9.12;100.00;100340.94;6335402;22;20014;-73
2022/04/23 05:16:04;;;;;;;130.75;50.63;;;;;;;9.25;100.00;100343.50;6303758;22;20015;-74
2022/04/23 05:18:30;;;;;;;133.00;55.17;;;;;;;9.33;100.00;100337.91;6336360;22;20067;-75
2022/04/23 05:20:55;;;;;;;121.97;49.58;;;;;;;9.51;100.00;100335.28;6336819;22;20003;-74
2022/04/23 05:23:21;;;;;;;128.00;52.78;;;;;;;9.61;100.00;100342.81;6329950;22;20332;-74
2022/04/23 05:29:08;;;;;;;107.10;46.10;;;;;;;9.91;100.00;100332.22;6337247;22;20057;-75
2022/04/23 05:31:33;;;;;;;128.38;54.13;;;;;;;10.08;100.00;100335.09;6336947;22;20007;-75
2022/04/23 05:33:58;;;;;;;113.07;45.97;;;;;;;10.18;100.00;100330.06;6329946;22;20007;-73
2022/04/23 05:36:24;;;;;;;114.27;50.63;;;;;;;10.40;100.00;100341.13;6336974;22;20099;-75
2022/04/23 05:38:49;;;;;;;122.97;49.63;;;;;;;10.55;100.00;100330.84;6302246;22;20256;-75
2022/04/23 05:41:15;;;;;;;121.30;50.30;;;;;;;10.73;100.00;100341.53;6336653;22;20013;-73
2022/04/23 05:43:41;;;;;;;122.13;51.67;;;;;;;10.91;100.00;100335.28;6309239;22;20030;-74
2022/04/23 05:46:06;;;;;;;113.25;46.05;;;;;;;11.05;99.89;100335.91;6329950;22;20011;-75
2022/04/23 05:48:32;;;;;;;124.32;50.78;;;;;;;11.23;99.03;100335.81;6309117;22;20060;-73
2022/04/23 05:50:57;;;;;;;120.70;49.90;;;;;;;11.44;97.28;100339.78;6330047;22;20017;-74
2022/04/23 05:53:22;;;;;;;112.23;49.03;;;;;;;11.68;95.66;100345.97;6336397;22;20327;-74
2022/04/23 05:55:48;;;;;;;126.63;54.03;;;;;;;11.68;94.65;100322.69;6329903;22;20244;-75
2022/04/23 05:58:13;;;;;;;110.72;49.53;;;;;;;11.95;93.53;100340.97;6335167;22;20013;-75
2022/04/23 06:00:38;;;;;;;131.27;52.28;;;;;;;12.06;93.45;100340.94;6336822;22;20003;-74
2022/04/23 06:03:04;;;;;;;116.38;50.25;;;;;;;12.37;91.54;100336.22;6329810;22;20420;-74
2022/04/23 06:05:29;;;;;;;123.68;53.38;;;;;;;12.56;89.70;100334.97;6309029;22;20017;-74
2022/04/23 06:07:54;;;;;;;105.43;48.05;;;;;;;12.75;88.03;100334.81;6328594;22;20024;-75
2022/04/23 06:10:20;;;;;;;119.50;54.53;;;;;;;12.97;87.28;100324.97;6308969;22;20003;-74
2022/04/23 06:12:45;;;;;;;110.28;52.53;;;;;;;13.17;86.00;100341.47;6329769;22;20324;-74
2022/04/23 06:18:32;;;;;;;124.22;55.63;;;;;;;13.22;84.31;100325.44;6329945;22;20052;-75
2022/04/23 06:20:57;;;;;;;107.85;52.65;;;;;;;13.26;83.94;100329.25;6336564;22;20038;-75
2022/04/23 06:23:22;;;;;;;119.67;56.50;;;;;;;13.42;83.34;100321.44;6334961;22;20017;-75
2022/04/23 06:25:48;;;;;;;113.73;55.80;;;;;;;13.54;81.70;100333.72;6302527;22;20256;-75
2022/04/23 06:28:13;;;;;;;113.90;50.83;;;;;;;13.78;81.61;100320.91;6336708;22;20315;-75
2022/04/23 06:30:38;;;;;;;106.77;53.90;;;;;;;14.08;78.86;100328.56;6329976;22;20689;-75
2022/04/23 06:33:04;;;;;;;108.68;47.08;;;;;;;14.45;78.60;100331.44;6336706;22;20310;-75
2022/04/23 06:35:30;;;;;;;100.65;44.13;;;;;;;14.52;76.88;100329.41;6329738;22;20018;-75
2022/04/23 06:37:56;;;;;;;108.72;51.15;;;;;;;14.75;76.61;100328.28;6336627;22;20006;-75
2022/04/23 06:40:22;;;;;;;114.45;53.13;;;;;;;14.86;75.54;100324.63;6337206;22;20082;-75
2022/04/23 06:42:47;;;;;;;99.35;49.70;;;;;;;15.11;73.18;100323.22;6302274;22;20014;-75
2022/04/23 06:45:12;;;;;;;111.07;53.28;;;;;;;15.43;72.02;100340.19;6336491;22;20011;-75
2022/04/23 06:47:38;;;;;;;93.18;44.42;;;;;;;15.76;71.28;100331.00;6328273;22;20010;-74
2022/04/23 06:50:04;;;;;;;102.57;48.03;;;;;;;16.18;69.54;100318.50;6336529;22;20419;-74
2022/04/23 06:52:30;;;;;;;95.18;44.88;;;;;;;16.25;67.79;100328.00;6329382;22;20011;-74
2022/04/23 06:54:55;;;;;;;94.97;49.05;;;;;;;16.15;68.01;100325.25;6336594;22;20313;-75
2022/04/23 06:57:22;;;;;;;94.25;46.75;;;;;;;16.03;67.94;100321.97;6336359;22;20327;-75
2022/04/23 07:03:09;;;;;;;92.57;49.20;;;;;;;16.75;66.24;100323.84;6336540;22;20021;-76
2022/04/23 07:05:35;;;;;;;85.75;46.90;;;;;;;16.93;63.89;100320.63;6329712;22;20082;-76
2022/04/23 07:08:02;;;;;;;94.25;44.05;;;;;;;17.03;64.28;100315.22;6336410;22;20013;-74
2022/04/23 07:10:30;;;;;;;90.72;44.65;;;;;;;17.56;62.02;100313.03;6329551;22;20189;-74
2022/04/23 07:12:56;;;;;;;78.47;43.92;;;;;;;17.82;59.96;100323.84;6336364;22;20143;-76
2022/04/23 07:15:23;;;;;;;80.72;43.25;;;;;;;17.63;60.20;100307.34;6329394;22;20016;-75
2022/04/23 07:17:49;;;;;;;84.35;46.53;;;;;;;17.14;61.66;100316.06;6308535;22;20081;-75
2022/04/23 07:20:18;;;;;;;72.78;41.90;;;;;;;17.45;59.80;100305.22;6336050;22;19998;-76
2022/04/23 07:24:03;;;;;;;76.80;43.65;;;;;;;17.46;60.67;100317.66;6303463;22;20010;-75
2022/04/23 07:25:31;;;;;;;72.57;45.88;;;;;;;17.19;60.43;100312.53;6336068;22;20014;-76
2022/04/23 07:27:56;;;;;;;68.97;40.65;;;;;;;17.13;61.36;100306.34;6329467;22;20015;-75
2022/04/23 07:30:21;;;;;;;71.72;40.83;;;;;;;17.16;61.50;100305.78;6336371;22;20006;-75
2022/04/23 07:32:47;;;;;;;72.45;38.30;;;;;;;17.74;60.33;100297.38;6329049;22;20090;-75
2022/04/23 07:37:56;;;;;;;72.88;41.65;;;;;;;18.29;58.79;100293.63;6329495;22;20253;-75
2022/04/23 07:40:22;;;;;;;68.90;40.33;;;;;;;18.45;57.33;100300.56;6336230;22;20006;-76
2022/04/23 07:42:47;;;;;;;65.50;39.13;;;;;;;19.06;54.82;100293.94;6308312;22;20089;-74
2022/04/23 07:45:13;;;;;;;70.93;41.27;;;;;;;19.05;54.17;100303.16;6329335;22;20006;-75
2022/04/23 07:47:39;;;;;;;66.57;39.65;;;;;;;18.75;54.19;100302.31;6335829;22;20247;-75
2022/04/23 07:50:04;;;;;;;66.80;40.85;;;;;;;18.53;54.21;100300.00;6301734;22;20022;-75
2022/04/23 07:52:30;;;;;;;64.25;37.15;;;;;;;18.91;54.36;100283.25;6335889;22;20357;-75
2022/04/23 07:54:55;;;;;;;60.33;38.92;;;;;;;19.16;52.27;100291.19;6301576;22;20121;-76
2022/04/23 07:57:22;;;;;;;65.68;36.85;;;;;;;19.53;51.36;100285.16;6336089;22;20007;-75
2022/04/23 07:59:48;;;;;;;64.13;36.78;;;;;;;19.72;52.08;100296.09;6336001;22;20010;-77
2022/04/23 08:02:13;;;;;;;58.38;37.35;;;;;;;20.07;49.53;100294.84;6301776;22;20448;-75
2022/04/23 08:04:39;;;;;;;59.30;37.63;;;;;;;20.41;50.08;100287.38;6334156;22;20330;-75
2022/04/23 08:07:04;;;;;;;58.43;37.23;;;;;;;20.83;48.01;100298.47;6329158;22;20307;-77
2022/04/23 08:09:30;;;;;;;59.38;36.35;;;;;;;20.89;47.49;100289.94;6335967;22;20748;-75
2022/04/23 08:11:55;;;;;;;52.30;34.10;;;;;;;19.94;48.82;100277.34;6301428;22;20101;-75
2022/04/23 08:14:20;;;;;;;61.25;36.92;;;;;;;18.47;53.32;100287.56;6335953;22;20073;-75
2022/04/23 08:16:48;;;;;;;56.80;36.60;;;;;;;18.62;52.79;100284.00;6335781;22;20007;-75
2022/04/23 08:19:14;;;;;;;51.92;33.15;;;;;;;18.49;52.96;100266.44;6328980;22;20244;-75
2022/04/23 08:21:39;;;;;;;58.78;36.15;;;;;;;18.79;51.85;100279.00;6308102;22;20458;-76
2022/04/23 08:24:05;;;;;;;53.30;33.55;;;;;;;18.72;52.77;100275.78;6329069;22;20007;-76
2022/04/23 08:26:30;;;;;;;56.95;34.47;;;;;;;18.67;53.74;100273.13;6308010;22;20026;-76
2022/04/23 08:32:17;;;;;;;60.90;34.33;;;;;;;19.35;49.83;100253.28;6335762;22;20232;-74
2022/04/23 08:34:42;;;;;;;54.35;38.03;;;;;;;19.07;50.25;100274.69;6301788;22;20364;-75
2022/04/23 08:37:07;;;;;;;53.47;33.43;;;;;;;20.04;50.50;100262.88;6335769;22;20010;-76
2022/04/23 08:39:32;;;;;;;50.47;32.97;;;;;;;20.56;46.58;100271.97;6333706;22;20616;-75
2022/04/23 08:41:59;;;;;;;47.20;32.70;;;;;;;19.91;48.27;100271.69;6303705;22;20307;-75
2022/04/23 08:44:24;;;;;;;53.78;33.47;;;;;;;20.59;47.00;100277.63;6308226;22;20306;-75
2022/04/23 08:46:53;;;;;;;51.93;34.80;;;;;;;20.48;46.76;100267.97;6330452;22;20412;-75
2022/04/23 08:49:18;;;;;;;66.63;35.10;;;;;;;20.02;47.33;100263.16;6337130;22;20697;-75
2022/04/23 08:51:51;;;;;;;45.72;33.10;;;;;;;19.78;47.66;100273.22;6302729;22;20060;-75
2022/04/23 08:54:16;;;;;;;51.30;35.30;;;;;;;19.56;48.18;100281.84;6337148;22;20423;-76
2022/04/23 08:56:44;;;;;;;70.55;34.25;;;;;;;19.37;49.77;100268.22;6333008;22;20029;-75
2022/04/23 08:59:13;;;;;;;48.63;34.55;;;;;;;19.46;50.90;100268.38;6334737;22;20057;-76
2022/04/23 09:01:38;;;;;;;50.85;34.28;;;;;;;19.91;49.03;100275.22;6337131;22;20108;-75
2022/04/23 09:04:06;;;;;;;48.45;32.70;;;;;;;19.79;50.56;100266.69;6329859;22;20141;-76
2022/04/23 09:06:53;;;;;;;50.63;33.58;;;;;;;20.17;48.14;100272.19;6336998;22;20030;-76
2022/04/23 09:09:20;;;;;;;52.60;36.35;;;;;;;19.47;50.50;100270.00;6330146;22;20015;-75
2022/04/23 09:11:49;;;;;;;50.70;35.35;;;;;;;18.87;52.57;100272.97;6309331;22;20003;-77
2022/04/23 09:14:32;;;;;;;53.05;35.22;;;;;;;19.12;52.82;100280.09;6330015;22;20017;-75
2022/04/23 09:25:14;;;;;;;56.30;37.92;;;;;;;17.11;59.18;100313.09;6330815;22;20029;-76
2022/04/23 09:27:43;;;;;;;53.72;35.78;;;;;;;17.07;57.96;100299.31;6336485;22;20011;-75
2022/04/23 09:30:13;;;;;;;57.88;39.97;;;;;;;16.81;58.44;100289.59;6309073;22;20378;-76
2022/04/23 09:32:58;;;;;;;58.97;36.92;;;;;;;16.96;59.50;100286.88;6329850;22;20069;-75
2022/04/23 09:35:24;;;;;;;56.83;37.22;;;;;;;16.98;58.72;100280.13;6309164;22;20087;-75
2022/04/23 09:40:33;;;;;;;59.83;38.60;;;;;;;17.34;58.95;100282.78;6336938;22;20474;-77
2022/04/23 09:43:06;;;;;;;65.60;40.58;;;;;;;16.99;59.87;100291.72;6329971;22;20006;-76
2022/04/23 09:45:36;;;;;;;57.08;39.88;;;;;;;17.07;60.36;100276.91;6336813;22;20110;-77
2022/04/23 09:48:10;;;;;;;57.15;40.03;;;;;;;17.39;59.15;100292.81;6330158;22;20022;-76
2022/04/23 09:50:36;;;;;;;59.15;42.60;;;;;;;17.04;58.81;100292.53;6309115;22;20052;-75
2022/04/23 09:53:18;;;;;;;59.97;41.17;;;;;;;17.89;58.16;100272.97;6309202;22;20022;-76
2022/04/23 09:55:48;;;;;;;51.03;36.33;;;;;;;19.05;54.03;100282.31;6329633;22;20068;-75
2022/04/23 09:58:15;;;;;;;63.75;42.05;;;;;;;19.82;52.21;100266.13;6336756;22;20339;-76
2022/04/23 10:00:42;;;;;;;58.35;40.35;;;;;;;20.60;49.83;100264.84;6329948;22;20451;-75
2022/04/23 10:03:09;;;;;;;54.80;38.83;;;;;;;21.68;47.85;100278.22;6336746;22;20002;-74
2022/04/23 10:05:44;;;;;;;53.17;41.58;;;;;;;21.63;45.92;100270.97;6329664;22;20435;-75
2022/04/23 10:08:12;;;;;;;48.97;39.83;;;;;;;20.92;45.20;100264.06;6336899;22;20031;-75
2022/04/23 10:11:08;;;;;;;53.65;37.13;;;;;;;20.55;48.11;100282.03;6323733;22;20016;-75
2022/04/23 10:13:33;;;;;;;54.40;39.78;;;;;;;20.50;47.48;100275.84;6336874;22;20015;-78
2022/04/23 10:16:02;;;;;;;51.53;33.65;;;;;;;20.83;46.41;100293.03;6333433;22;20331;-76
2022/04/23 10:18:27;;;;;;;54.13;37.00;;;;;;;20.67;48.39;100266.06;6333827;22;20013;-75
2022/04/23 10:20:56;;;;;;;54.53;35.83;;;;;;;20.62;48.12;100262.63;6336625;22;20007;-76
2022/04/23 10:23:42;;;;;;;52.17;40.28;;;;;;;21.18;46.47;100259.00;6329571;22;20476;-75
2022/04/23 10:26:32;;;;;;;56.28;40.60;;;;;;;21.12;47.45;100265.63;6308929;22;20006;-76
2022/04/23 10:28:57;;;;;;;51.33;37.33;;;;;;;21.43;44.24;100253.13;6329794;22;20007;-76
2022/04/23 10:31:23;;;;;;;52.25;41.97;;;;;;;20.65;47.48;100251.16;6336570;22;20503;-76
2022/04/23 10:33:51;;;;;;;56.13;42.25;;;;;;;19.96;49.61;100260.81;6329974;22;20485;-76
2022/04/23 10:36:21;;;;;;;53.58;43.00;;;;;;;19.71;50.48;100241.03;6309139;22;20003;-76
2022/04/23 10:38:51;;;;;;;52.90;41.25;;;;;;;19.67;48.86;100233.75;6332314;22;20435;-76
2022/04/23 10:41:19;;;;;;;52.30;40.63;;;;;;;19.56;50.69;100249.31;6335265;22;20011;-77
2022/04/23 10:43:50;;;;;;;53.05;41.13;;;;;;;19.17;51.33;100247.50;6336476;22;20323;-76
2022/04/23 10:46:37;;;;;;;52.78;39.97;;;;;;;19.19;51.27;100255.38;6302418;22;20014;-76
2022/04/23 10:49:19;;;;;;;55.13;43.60;;;;;;;18.60;51.79;100256.34;6308778;22;20010;-75
2022/04/23 10:51:46;;;;;;;57.10;41.20;;;;;;;18.08;54.16;100254.22;6329901;22;20037;-76
2022/04/23 10:54:12;;;;;;;58.65;42.80;;;;;;;18.32;53.89;100255.19;6336546;22;20014;-75
2022/04/23 10:56:37;;;;;;;63.25;42.08;;;;;;;18.75;54.02;100252.75;6302308;22;20010;-75
2022/04/23 10:59:03;;;;;;;56.92;41.92;;;;;;;18.47;53.32;100248.84;6336499;22;20427;-76
2022/04/23 11:01:30;;;;;;;59.42;43.78;;;;;;;18.08;54.06;100249.63;6304364;22;20335;-76
2022/04/23 11:03:56;;;;;;;56.55;39.38;;;;;;;18.75;55.36;100250.03;6334316;22;20332;-74
2022/04/23 11:12:33;;;;;;;52.60;39.75;;;;;;;19.48;51.12;100252.63;6299712;22;20352;-76
2022/04/23 11:15:00;;;;;;;55.95;37.33;;;;;;;20.00;50.71;100240.13;6329356;22;20010;-75
2022/04/23 11:17:32;;;;;;;52.83;38.65;;;;;;;20.13;50.42;100244.00;6336302;22;20365;-76
2022/04/23 11:19:57;;;;;;;56.28;40.70;;;;;;;19.75;50.51;100239.34;6329582;22;20060;-76
2022/04/23 11:22:23;;;;;;;52.17;37.65;;;;;;;20.00;52.39;100227.34;6336373;22;20015;-75
2022/04/23 11:24:50;;;;;;;51.05;37.85;;;;;;;19.67;49.42;100231.03;6329249;22;20059;-76
2022/04/23 11:27:26;;;;;;;51.78;36.30;;;;;;;19.48;50.87;100242.59;6308695;22;20488;-77
2022/04/23 11:29:52;;;;;;;54.00;38.38;;;;;;;19.33;50.61;100229.19;6331567;22;20013;-76
2022/04/23 11:35:39;;;;;;;48.20;36.75;;;;;;;18.94;52.16;100223.88;6330012;22;20149;-76
2022/04/23 11:38:05;;;;;;;54.92;40.67;;;;;;;19.06;52.59;100220.78;6336030;22;20038;-76
2022/04/23 11:40:34;;;;;;;54.28;37.13;;;;;;;19.11;51.98;100226.16;6336169;22;20481;-75
2022/04/23 11:42:59;;;;;;;53.22;39.42;;;;;;;19.16;52.00;100226.13;6329325;22;20018;-75
2022/04/23 11:45:24;;;;;;;53.40;39.27;;;;;;;18.74;51.41;100230.25;6336242;22;19998;-75
2022/04/23 11:47:50;;;;;;;50.83;40.37;;;;;;;18.61;52.49;100214.63;6329407;22;20269;-75
2022/04/23 11:50:21;;;;;;;57.13;41.08;;;;;;;18.96;53.01;100221.69;6308516;22;20290;-77
2022/04/23 11:53:01;;;;;;;57.80;36.63;;;;;;;18.75;53.27;100207.50;6329219;22;20011;-75
2022/04/23 11:55:28;;;;;;;48.45;35.33;;;;;;;18.80;51.11;100217.50;6336146;22;20492;-75
2022/04/23 11:57:55;;;;;;;48.50;34.75;;;;;;;19.10;52.45;100214.53;6308186;22;20011;-77
2022/04/23 12:00:21;;;;;;;50.20;34.65;;;;;;;20.19;48.50;100213.78;6323451;22;20010;-76
2022/04/23 12:02:47;;;;;;;47.78;35.03;;;;;;;20.32;49.13;100204.13;6336004;22;20013;-76
2022/04/23 12:05:12;;;;;;;49.90;36.00;;;;;;;20.21;48.63;100208.06;6329175;22;20034;-76
2022/04/23 12:07:37;;;;;;;50.15;35.38;;;;;;;19.59;49.70;100212.66;6335926;22;20013;-76
2022/04/23 12:10:03;;;;;;;47.43;37.27;;;;;;;18.95;50.33;100205.72;6329082;22;20411;-75
2022/04/23 12:12:33;;;;;;;46.70;32.65;;;;;;;19.44;49.83;100228.00;6335820;22;20247;-75
2022/04/23 12:15:01;;;;;;;50.92;33.70;;;;;;;19.44;50.96;100205.50;6335185;22;20018;-76
2022/04/23 12:17:29;;;;;;;43.40;31.48;;;;;;;19.77;50.73;100192.91;6330611;22;20007;-77
2022/04/23 12:19:59;;;;;;;45.17;32.25;;;;;;;19.95;52.81;100199.44;6336939;22;20462;-77